Hovedside
METAR-TAF:

METAR-TAF

Lufthavner :

Kuusamo, Finland

Kuusamo lufthavn

breddegrad: 65-58N, lengdegrad: 029-11E, høyde over havet: 262 m

Gjeldene værobservasjon

Denne rapporten ble laget for 6 minutter siden, klokken 21:20 UTC
Vind 6 kt fra Vest-nordvest
Temperatur -12°C
Luftfuktighet 85%
Trykk 1040 hPa
Sikt 10 km eller mer
ingen skyer under 1500 m og ingen bygeskyer

METAR: EFKS 242120Z AUTO 30006KT CAVOK M12/M14 Q1040

Tid: 23:26 (21:26 UTC)

Varsel

Denne rapporten ble laget for 3 timer og 58 minutter siden, klokken 17:28 UTC
Varsel gyldig fra 24. klokken 18 UTC til 24. klokken 21 UTC
Vind 7 kt fra Nordvest
Sikt 10 km eller mer
Få skyer i en høyde av 2000 ft
Brutte skyer i en høyde av 4000 ft
Midlertidig
fra 24. klokken 18 UTC til 24. klokken 21 UTC
Sikt: 7000 m
lett snø
Sannsynlighet 30%
fra 24. klokken 18 UTC til 24. klokken 21 UTC
Sikt: 4000 m
lette snøbyger

TAF: EFKS 241728Z 2418/2421 31007KT 9999 FEW020 BKN040 TEMPO 2418/2421 7000 -SN PROB30 2418/2421 4000 -SHSN

Værobservasjoner og værvarsel for over 4000 flyplasser (METAR- og TAF-rapporter).

Tilgjengelige stasjoner er representert av de røde og gule prikkene på kartet.

Hold musepekeren over prikken for å se navnet på stasjonen.

Klikk så for å se værobservasjoner og -varsler.

For å forandre kartet kan du klikke på den grønne knappen med svart kryss for å zoome inn, på den grønne knappen med strek for å zoome ut, eller på de grønne pilene for å se tilstøtende kart.


METAR-TAF: